createdAt,value
2022-09-12T00:01:23.065Z,85736.09
2022-09-12T00:04:01.243Z,85719.38
2022-09-12T00:06:34.746Z,85719.81
2022-09-12T00:09:07.182Z,85686.31
2022-09-12T00:11:39.766Z,85716.47
2022-09-12T00:14:12.239Z,85710.41
2022-09-12T00:16:40.780Z,85703.81
2022-09-12T00:19:09.176Z,85728.00
2022-09-12T00:21:39.231Z,85696.13
2022-09-12T00:24:07.415Z,85692.81
2022-09-12T00:26:35.598Z,85698.16
2022-09-12T00:29:03.116Z,85670.44
2022-09-12T00:31:31.161Z,85690.63
2022-09-12T00:34:00.972Z,85719.56
2022-09-12T00:36:31.077Z,85705.66
2022-09-12T00:38:59.101Z,85699.47
2022-09-12T00:41:32.303Z,85710.28
2022-09-12T00:44:48.742Z,85693.00
2022-09-12T00:47:29.056Z,85665.13
2022-09-12T00:50:03.581Z,85713.75
2022-09-12T00:52:53.027Z,85695.06
2022-09-12T00:55:32.460Z,85705.28
2022-09-12T00:58:15.304Z,85687.06
2022-09-12T01:00:43.346Z,85702.16
2022-09-12T01:03:14.865Z,85718.66
2022-09-12T01:05:49.575Z,85717.81
2022-09-12T01:08:17.971Z,85722.72
2022-09-12T01:10:46.681Z,85703.53
2022-09-12T01:13:15.518Z,85676.09
2022-09-12T01:15:43.603Z,85717.97
2022-09-12T01:18:21.288Z,85717.00
2022-09-12T01:21:10.356Z,85709.53
2022-09-12T01:23:51.445Z,85708.63
2022-09-12T01:26:54.195Z,85705.84
2022-09-12T01:30:04.627Z,85705.03
2022-09-12T01:32:41.315Z,85706.56
2022-09-12T01:35:16.757Z,85700.78
2022-09-12T01:38:25.749Z,85698.47
2022-09-12T01:41:03.041Z,85673.16
2022-09-12T01:43:49.562Z,85646.00
2022-09-12T01:46:29.966Z,85684.19
2022-09-12T01:49:09.082Z,85648.56
2022-09-12T01:51:41.637Z,85672.06
2022-09-12T01:54:21.598Z,85678.75
2022-09-12T01:56:53.920Z,85694.00
2022-09-12T01:59:28.790Z,85690.66
2022-09-12T02:02:03.171Z,85685.00
2022-09-12T02:04:52.855Z,85643.72
2022-09-12T02:07:38.266Z,85667.06
2022-09-12T02:10:09.643Z,85687.13
2022-09-12T02:12:46.559Z,85680.72
2022-09-12T02:15:16.040Z,85662.19
2022-09-12T02:17:46.402Z,85659.56
2022-09-12T02:20:48.576Z,85669.78
2022-09-12T02:23:23.149Z,85690.06
2022-09-12T02:25:55.178Z,85614.53
2022-09-12T02:28:28.535Z,85684.88
2022-09-12T02:31:34.621Z,85693.31
2022-09-12T02:34:25.034Z,85688.22
2022-09-12T02:37:02.285Z,85685.84
2022-09-12T02:39:30.053Z,85679.66
2022-09-12T02:42:01.137Z,85686.72
2022-09-12T02:44:31.390Z,85675.09
2022-09-12T02:47:11.478Z,85686.13
2022-09-12T02:49:39.655Z,85688.78
2022-09-12T02:52:07.182Z,85673.19
2022-09-12T02:54:35.342Z,85692.94
2022-09-12T02:57:02.451Z,85691.75
2022-09-12T02:59:29.876Z,85656.25
2022-09-12T03:02:17.256Z,85662.03
2022-09-12T03:05:30.600Z,85698.56
2022-09-12T03:08:12.367Z,85693.78
2022-09-12T03:11:08.408Z,85696.59
2022-09-12T03:13:45.519Z,85697.94
2022-09-12T03:16:35.879Z,85697.94
2022-09-12T03:19:25.525Z,85696.44
2022-09-12T03:22:04.392Z,85697.75
2022-09-12T03:24:38.370Z,85700.53
2022-09-12T03:27:24.386Z,85699.13
2022-09-12T03:29:53.120Z,85693.59
2022-09-12T03:32:20.495Z,85703.34
2022-09-12T03:34:48.272Z,85692.31
2022-09-12T03:37:15.666Z,85699.84
2022-09-12T03:39:43.307Z,85713.78
2022-09-12T03:42:10.670Z,85710.28
2022-09-12T03:44:38.308Z,85711.16
2022-09-12T03:47:10.568Z,85698.69
2022-09-12T03:49:38.365Z,85725.81
2022-09-12T03:52:05.560Z,85705.88
2022-09-12T03:54:32.859Z,85696.88
2022-09-12T03:57:00.275Z,85687.69
2022-09-12T03:59:27.533Z,85703.25
2022-09-12T04:01:54.855Z,85706.81
2022-09-12T04:04:22.514Z,85716.44
2022-09-12T04:06:49.917Z,85702.13
2022-09-12T04:09:17.655Z,85690.78
2022-09-12T04:11:44.741Z,85717.47
2022-09-12T04:14:12.914Z,85705.88
2022-09-12T04:16:40.281Z,85667.69
2022-09-12T04:19:08.258Z,85726.69
2022-09-12T04:21:36.493Z,85727.38
2022-09-12T04:24:05.184Z,85702.53
2022-09-12T04:26:32.376Z,85731.31
2022-09-12T04:29:00.706Z,85733.25
2022-09-12T04:31:28.174Z,85732.59
2022-09-12T04:33:59.068Z,85745.19
2022-09-12T04:36:28.372Z,85741.59
2022-09-12T04:38:56.086Z,85712.16
2022-09-12T04:41:26.524Z,85735.97
2022-09-12T04:43:58.928Z,85720.38
2022-09-12T04:46:27.131Z,85719.88
2022-09-12T04:48:57.108Z,85719.09
2022-09-12T04:51:36.120Z,85741.59
2022-09-12T04:54:09.508Z,85747.13
2022-09-12T04:56:42.404Z,85738.03
2022-09-12T04:59:10.938Z,85746.47
2022-09-12T05:01:38.553Z,85727.31
2022-09-12T05:04:06.056Z,85737.72
2022-09-12T05:06:36.863Z,85748.69
2022-09-12T05:09:07.589Z,85727.38
2022-09-12T05:12:02.706Z,85754.09
2022-09-12T05:14:25.899Z,85751.91
2022-09-12T05:16:53.284Z,85756.50
2022-09-12T05:19:21.010Z,85730.94
2022-09-12T05:21:47.923Z,85750.16
2022-09-12T05:24:15.697Z,85746.50
2022-09-12T05:26:42.777Z,85750.84
2022-09-12T05:29:10.499Z,85751.47
2022-09-12T05:31:37.774Z,85753.31
2022-09-12T05:34:07.215Z,85723.69
2022-09-12T05:36:34.642Z,85732.72
2022-09-12T05:39:04.588Z,85747.75
2022-09-12T05:41:33.997Z,85745.56
2022-09-12T05:44:05.316Z,85733.25
2022-09-12T05:46:41.302Z,85755.28
2022-09-12T05:49:11.872Z,85734.56
2022-09-12T05:51:43.475Z,85750.31
2022-09-12T05:54:14.714Z,85728.00
2022-09-12T05:56:44.145Z,85730.50
2022-09-12T05:59:14.823Z,85725.38
2022-09-12T06:01:42.927Z,85746.84
2022-09-12T06:04:11.036Z,85698.34
2022-09-12T06:06:50.785Z,85742.72
2022-09-12T06:09:18.936Z,85743.97
2022-09-12T06:11:46.817Z,85718.09
2022-09-12T06:14:17.378Z,85744.16
2022-09-12T06:16:45.115Z,85758.72
2022-09-12T06:19:18.418Z,85729.22
2022-09-12T06:21:46.296Z,85731.44
2022-09-12T06:24:14.163Z,85724.78
2022-09-12T06:26:42.561Z,85748.47
2022-09-12T06:29:11.679Z,85731.03
2022-09-12T06:31:44.549Z,85763.22
2022-09-12T06:34:14.340Z,85738.44
2022-09-12T06:36:45.521Z,85738.25
2022-09-12T06:39:18.441Z,85728.66
2022-09-12T06:41:47.624Z,85754.63
2022-09-12T06:44:17.933Z,85766.34
2022-09-12T06:46:46.305Z,85756.69
2022-09-12T06:49:14.362Z,85744.25
2022-09-12T06:51:43.137Z,85752.09
2022-09-12T06:54:13.546Z,85775.31
2022-09-12T06:56:41.516Z,85744.75
2022-09-12T06:59:08.739Z,85787.75
2022-09-12T07:01:36.255Z,85773.16
2022-09-12T07:04:05.156Z,85760.78
2022-09-12T07:06:38.629Z,85727.91
2022-09-12T07:09:09.024Z,85757.59
2022-09-12T07:11:38.693Z,85773.41
2022-09-12T07:14:08.227Z,85765.56
2022-09-12T07:16:36.986Z,85761.66
2022-09-12T07:19:06.073Z,85758.06
2022-09-12T07:21:33.491Z,85780.69
2022-09-12T07:24:01.122Z,85782.69
2022-09-12T07:26:30.600Z,85783.28
2022-09-12T07:29:19.077Z,85748.78
2022-09-12T07:31:47.241Z,85783.31
2022-09-12T07:34:15.986Z,85736.28
2022-09-12T07:36:43.672Z,85759.50
2022-09-12T07:39:11.520Z,85749.47
2022-09-12T07:41:39.270Z,85780.66
2022-09-12T07:44:07.293Z,85733.47
2022-09-12T07:46:35.681Z,85788.72
2022-09-12T07:49:03.653Z,85737.03
2022-09-12T07:51:32.198Z,85780.84
2022-09-12T07:54:00.065Z,85778.72
2022-09-12T07:56:31.260Z,85774.41
2022-09-12T07:59:00.112Z,85747.53
2022-09-12T08:01:27.746Z,85775.91
2022-09-12T08:03:57.676Z,85771.44
2022-09-12T08:06:26.612Z,85767.56
2022-09-12T08:08:56.637Z,85784.22
2022-09-12T08:11:25.691Z,85781.25
2022-09-12T08:13:56.264Z,85790.25
2022-09-12T08:16:29.903Z,85786.59
2022-09-12T08:18:57.834Z,85785.34
2022-09-12T08:21:27.675Z,85783.63
2022-09-12T08:24:04.025Z,85796.47
2022-09-12T08:26:32.851Z,85783.25
2022-09-12T08:29:00.814Z,85791.41
2022-09-12T08:31:29.400Z,85780.53
2022-09-12T08:33:58.199Z,85798.00
2022-09-12T08:36:28.460Z,85797.09
2022-09-12T08:39:01.918Z,85756.44
2022-09-12T08:41:39.702Z,85790.34
2022-09-12T08:44:25.606Z,85798.97
2022-09-12T08:47:05.750Z,85792.50
2022-09-12T08:49:57.362Z,85787.66
2022-09-12T08:52:31.317Z,85781.00
2022-09-12T08:54:59.118Z,85767.00
2022-09-12T08:57:26.845Z,85768.53
2022-09-12T08:59:54.906Z,85741.75
2022-09-12T09:03:01.847Z,85785.13
2022-09-12T09:05:49.306Z,85780.94
2022-09-12T09:08:28.690Z,85779.94
2022-09-12T09:11:26.554Z,85775.44
2022-09-12T09:14:31.727Z,85776.22
2022-09-12T09:17:01.381Z,85761.88
2022-09-12T09:19:37.637Z,85745.47
2022-09-12T09:22:23.795Z,85780.56
2022-09-12T09:25:02.100Z,85729.13
2022-09-12T09:27:40.967Z,85734.34
2022-09-12T09:30:18.898Z,85771.88
2022-09-12T09:32:52.069Z,85777.47
2022-09-12T09:35:46.595Z,85734.97
2022-09-12T09:39:00.613Z,85784.66
2022-09-12T09:41:56.077Z,85778.38
2022-09-12T09:44:24.295Z,85771.47
2022-09-12T09:46:56.158Z,85773.81
2022-09-12T09:49:26.548Z,85773.88
2022-09-12T09:51:56.585Z,85713.34
2022-09-12T09:54:41.570Z,85730.28
2022-09-12T09:57:36.705Z,85774.13
2022-09-12T10:00:23.229Z,85784.41
2022-09-12T10:03:08.207Z,85772.00
2022-09-12T10:05:50.667Z,85778.88
2022-09-12T10:08:36.820Z,85748.94
2022-09-12T10:11:07.353Z,85783.72
2022-09-12T10:13:36.352Z,85783.72
2022-09-12T10:16:08.328Z,85787.16
2022-09-12T10:18:42.484Z,85773.38
2022-09-12T10:21:19.003Z,85790.16
2022-09-12T10:23:48.744Z,85749.03
2022-09-12T10:26:20.198Z,85784.72
2022-09-12T10:28:52.521Z,85759.53
2022-09-12T10:31:32.428Z,85789.47
2022-09-12T10:34:01.163Z,85786.06
2022-09-12T10:36:41.114Z,85733.91
2022-09-12T10:39:18.831Z,85782.59
2022-09-12T10:41:47.867Z,85779.50
2022-09-12T10:44:26.316Z,85774.22
2022-09-12T10:46:55.111Z,85772.31
2022-09-12T10:49:28.728Z,85789.50
2022-09-12T10:52:16.168Z,85787.50
2022-09-12T10:54:44.208Z,85781.75
2022-09-12T10:57:14.428Z,85788.63
2022-09-12T10:59:57.107Z,85793.44
2022-09-12T11:02:51.317Z,85748.56
2022-09-12T11:05:43.466Z,85787.84
2022-09-12T11:08:38.161Z,85779.56
2022-09-12T11:11:18.784Z,85792.00
2022-09-12T11:13:57.672Z,85784.63
2022-09-12T11:16:49.219Z,85796.34
2022-09-12T11:19:34.344Z,85785.38
2022-09-12T11:22:45.849Z,85769.97
2022-09-12T11:25:20.759Z,85789.47
2022-09-12T11:28:14.192Z,85784.63
2022-09-12T11:31:19.425Z,85778.19
2022-09-12T11:33:54.972Z,85773.28
2022-09-12T11:36:38.025Z,85790.66
2022-09-12T11:39:18.027Z,85776.75
2022-09-12T11:41:51.634Z,85778.69
2022-09-12T11:44:24.060Z,85762.53
2022-09-12T11:46:52.281Z,85777.72
2022-09-12T11:49:25.499Z,85787.91
2022-09-12T11:51:58.397Z,85777.72
2022-09-12T11:55:00.155Z,85779.91
2022-09-12T11:57:37.281Z,85742.94
2022-09-12T12:00:10.299Z,85734.34
2022-09-12T12:03:07.270Z,85765.38
2022-09-12T12:05:41.790Z,85774.06
2022-09-12T12:08:11.267Z,85769.72
2022-09-12T12:10:56.741Z,85751.03
2022-09-12T12:13:36.314Z,85734.06
2022-09-12T12:16:25.522Z,85758.22
2022-09-12T12:19:02.082Z,85741.16
2022-09-12T12:21:36.943Z,85774.19
2022-09-12T12:24:13.126Z,85749.38
2022-09-12T12:26:42.336Z,85763.66
2022-09-12T12:29:44.282Z,85766.03
2022-09-12T12:32:36.824Z,85759.06
2022-09-12T12:35:46.437Z,85757.88
2022-09-12T12:38:39.561Z,85761.78
2022-09-12T12:41:19.027Z,85759.06
2022-09-12T12:43:52.969Z,85730.09
2022-09-12T12:46:26.122Z,85712.94
2022-09-12T12:49:25.971Z,85737.16
2022-09-12T12:52:01.779Z,85730.69
2022-09-12T12:54:41.495Z,85755.53
2022-09-12T12:57:40.702Z,85749.38
2022-09-12T13:00:44.088Z,85747.44
2022-09-12T13:03:28.412Z,85742.78
2022-09-12T13:06:02.316Z,85734.19
2022-09-12T13:08:35.754Z,85743.78
2022-09-12T13:11:27.454Z,85733.59
2022-09-12T13:14:04.878Z,85721.84
2022-09-12T13:16:52.061Z,85748.44
2022-09-12T13:19:30.669Z,85729.50
2022-09-12T13:22:10.318Z,85715.03
2022-09-12T13:24:49.332Z,85739.31
2022-09-12T13:27:20.829Z,85728.34
2022-09-12T13:29:48.355Z,85730.13
2022-09-12T13:32:18.536Z,85743.47
2022-09-12T13:34:46.188Z,85725.69
2022-09-12T13:37:35.408Z,85738.19
2022-09-12T13:40:18.688Z,85740.97
2022-09-12T13:42:50.336Z,85720.88
2022-09-12T13:45:28.905Z,85742.47
2022-09-12T13:48:04.629Z,85747.97
2022-09-12T13:50:39.379Z,85716.66
2022-09-12T13:53:11.856Z,85719.81
2022-09-12T13:55:54.131Z,85713.09
2022-09-12T13:58:23.134Z,85735.28
2022-09-12T14:01:08.774Z,85742.44
2022-09-12T14:04:18.291Z,85749.22
2022-09-12T14:06:49.334Z,85737.34
2022-09-12T14:09:41.517Z,85747.94
2022-09-12T14:12:43.895Z,85743.78
2022-09-12T14:15:38.123Z,85741.53
2022-09-12T14:18:09.549Z,85743.44
2022-09-12T14:20:38.742Z,85701.66
2022-09-12T14:23:25.856Z,85743.63
2022-09-12T14:25:55.775Z,85742.59
2022-09-12T14:28:23.948Z,85718.13
2022-09-12T14:31:07.344Z,85745.47
2022-09-12T14:34:15.681Z,85749.72
2022-09-12T14:36:50.548Z,85740.88
2022-09-12T14:39:17.872Z,85767.34
2022-09-12T14:41:46.660Z,85730.81
2022-09-12T14:44:27.714Z,85737.53
2022-09-12T14:46:55.499Z,85757.00
2022-09-12T14:49:36.520Z,85738.66
2022-09-12T14:52:21.864Z,85753.06
2022-09-12T14:55:28.121Z,85742.28
2022-09-12T14:58:16.580Z,85753.75
2022-09-12T15:01:12.935Z,85748.81
2022-09-12T15:03:51.956Z,85749.03
2022-09-12T15:06:38.967Z,85756.81
2022-09-12T15:09:09.231Z,85754.69
2022-09-12T15:11:37.301Z,85758.34
2022-09-12T15:14:14.240Z,85757.50
2022-09-12T15:16:42.471Z,85721.44
2022-09-12T15:19:09.852Z,85756.81
2022-09-12T15:21:36.983Z,85746.41
2022-09-12T15:24:04.759Z,85761.53
2022-09-12T15:26:33.069Z,85762.06
2022-09-12T15:29:01.505Z,85753.13
2022-09-12T15:31:32.119Z,85767.28
2022-09-12T15:34:03.043Z,85736.38
2022-09-12T15:36:31.630Z,85719.91
2022-09-12T15:38:59.850Z,85728.50
2022-09-12T15:41:37.098Z,85765.19
2022-09-12T15:44:06.398Z,85762.38
2022-09-12T15:46:33.976Z,85750.13
2022-09-12T15:49:02.488Z,85762.63
2022-09-12T15:51:29.920Z,85757.94
2022-09-12T15:53:58.045Z,85763.75
2022-09-12T15:56:25.534Z,85760.28
2022-09-12T15:59:00.502Z,85762.34
2022-09-12T16:01:29.478Z,85767.06
2022-09-12T16:03:57.545Z,85762.41
2022-09-12T16:06:25.123Z,85739.97
2022-09-12T16:08:53.234Z,85752.28
2022-09-12T16:11:23.432Z,85736.38
2022-09-12T16:13:53.353Z,85762.47
2022-09-12T16:16:21.503Z,85762.47
2022-09-12T16:18:48.737Z,85746.44
2022-09-12T16:21:16.042Z,85728.91
2022-09-12T16:23:44.987Z,85758.84
2022-09-12T16:26:13.213Z,85767.63
2022-09-12T16:28:41.884Z,85760.44
2022-09-12T16:31:12.310Z,85764.84
2022-09-12T16:33:41.062Z,85764.91
2022-09-12T16:36:11.561Z,85752.66
2022-09-12T16:38:47.220Z,85761.44
2022-09-12T16:41:17.233Z,85774.28
2022-09-12T16:43:46.263Z,85754.03
2022-09-12T16:46:19.809Z,85750.38
2022-09-12T16:48:55.517Z,85771.78
2022-09-12T16:51:26.867Z,85770.03
2022-09-12T16:53:55.932Z,85771.41
2022-09-12T16:56:24.875Z,85774.13
2022-09-12T16:58:53.101Z,85754.69
2022-09-12T17:01:23.602Z,85774.84
2022-09-12T17:03:56.373Z,85788.72
2022-09-12T17:06:25.428Z,85762.91
2022-09-12T17:08:54.717Z,85794.50
2022-09-12T17:11:25.301Z,85794.66
2022-09-12T17:14:05.560Z,85787.69
2022-09-12T17:16:36.866Z,85755.00
2022-09-12T17:19:05.555Z,85779.81
2022-09-12T17:21:32.914Z,85774.63
2022-09-12T17:24:01.083Z,85804.59
2022-09-12T17:26:28.599Z,85760.03
2022-09-12T17:28:56.534Z,85813.06
2022-09-12T17:31:23.877Z,85797.25
2022-09-12T17:33:51.862Z,85772.19
2022-09-12T17:36:19.356Z,85767.81
2022-09-12T17:38:47.499Z,85792.63
2022-09-12T17:41:17.926Z,85769.53
2022-09-12T17:43:50.313Z,85803.66
2022-09-12T17:46:19.869Z,85805.59
2022-09-12T18:17:53.860Z,85818.25
2022-09-12T18:20:21.591Z,85813.41
2022-09-12T18:22:52.231Z,85787.38
2022-09-12T18:25:19.581Z,85820.97
2022-09-12T18:27:46.907Z,85797.25
2022-09-12T18:30:21.472Z,85834.44
2022-09-12T18:32:49.592Z,85819.19
2022-09-12T18:35:17.314Z,85798.53
2022-09-12T18:37:45.058Z,85832.75
2022-09-12T18:40:12.443Z,85809.44
2022-09-12T18:42:39.905Z,85840.81
2022-09-12T18:45:07.813Z,85836.59
2022-09-12T18:47:35.489Z,85835.47
2022-09-12T18:50:02.710Z,85838.47
2022-09-12T18:52:31.180Z,85786.44
2022-09-12T18:54:58.533Z,85793.31
2022-09-12T18:57:26.576Z,85824.31
2022-09-12T18:59:54.970Z,85806.78
2022-09-12T19:02:25.297Z,85816.16
2022-09-12T19:04:52.629Z,85828.69
2022-09-12T19:07:21.125Z,85808.16
2022-09-12T19:09:48.318Z,85815.16
2022-09-12T19:12:16.610Z,85811.06
2022-09-12T19:14:43.726Z,85832.88
2022-09-12T19:17:11.900Z,85816.66
2022-09-12T19:19:40.671Z,85839.47
2022-09-12T19:22:08.308Z,85823.59
2022-09-12T19:24:35.962Z,85807.28
2022-09-12T19:27:03.973Z,85827.81
2022-09-12T19:29:31.213Z,85828.50
2022-09-12T19:31:58.423Z,85826.38
2022-09-12T19:34:25.854Z,85829.25
2022-09-12T19:36:54.823Z,85818.41
2022-09-12T19:39:24.132Z,85775.28
2022-09-12T19:41:54.682Z,85816.84
2022-09-12T19:44:23.902Z,85817.34
2022-09-12T19:46:51.819Z,85818.19
2022-09-12T19:49:20.265Z,85801.94
2022-09-12T19:51:47.521Z,85813.41
2022-09-12T19:54:14.878Z,85793.13
2022-09-12T19:56:42.747Z,85801.19
2022-09-12T19:59:09.809Z,85814.19
2022-09-12T20:01:37.956Z,85814.88
2022-09-12T20:04:06.904Z,85791.47
2022-09-12T20:06:34.708Z,85812.63
2022-09-12T20:09:02.207Z,85811.06
2022-09-12T20:11:29.714Z,85809.94
2022-09-12T20:13:56.873Z,85811.19
2022-09-12T20:16:26.783Z,85816.78
2022-09-12T20:19:00.429Z,85808.34
2022-09-12T20:21:34.558Z,85799.41
2022-09-12T20:24:12.162Z,85811.25
2022-09-12T20:26:41.039Z,85807.91
2022-09-12T20:29:09.446Z,85808.47
2022-09-12T20:31:39.561Z,85779.25
2022-09-12T20:34:12.764Z,85774.41
2022-09-12T20:36:40.569Z,85799.84
2022-09-12T20:39:08.047Z,85792.38
2022-09-12T20:41:36.816Z,85789.59
2022-09-12T20:44:04.232Z,85819.22
2022-09-12T20:46:32.264Z,85813.09
2022-09-12T20:48:59.641Z,85814.38
2022-09-12T20:51:27.488Z,85810.16
2022-09-12T20:53:57.863Z,85822.03
2022-09-12T20:56:27.239Z,85814.53
2022-09-12T20:58:55.834Z,85811.91
2022-09-12T21:01:24.716Z,85818.84
2022-09-12T21:03:53.251Z,85811.91
2022-09-12T21:06:22.034Z,85801.00
2022-09-12T21:08:50.535Z,85817.00
2022-09-12T21:11:20.445Z,85784.97
2022-09-12T21:13:47.872Z,85817.16
2022-09-12T21:16:18.809Z,85809.91
2022-09-12T21:18:47.179Z,85811.63
2022-09-12T21:21:16.192Z,85832.94
2022-09-12T21:23:43.991Z,85823.91
2022-09-12T21:26:12.124Z,85820.03
2022-09-12T21:28:40.395Z,85835.75
2022-09-12T21:31:07.764Z,85797.28
2022-09-12T21:33:36.268Z,85795.06
2022-09-12T21:36:05.766Z,85823.22
2022-09-12T21:38:34.249Z,85826.00
2022-09-12T21:41:09.081Z,85830.28
2022-09-12T21:43:37.920Z,85834.47
2022-09-12T21:46:06.341Z,85798.28
2022-09-12T21:48:34.275Z,85831.00
2022-09-12T21:51:02.410Z,85809.88
2022-09-12T21:53:30.739Z,85800.31
2022-09-12T21:56:05.904Z,85818.72
2022-09-12T21:58:33.924Z,85794.06
2022-09-12T22:01:01.634Z,85829.59
2022-09-12T22:03:30.786Z,85821.97
2022-09-12T22:06:03.150Z,85809.63
2022-09-12T22:08:32.557Z,85812.47
2022-09-12T22:11:02.198Z,85786.50
2022-09-12T22:13:34.038Z,85806.84
2022-09-12T22:16:03.342Z,85777.50
2022-09-12T22:18:34.324Z,85804.09
2022-09-12T22:21:24.392Z,85791.00
2022-09-12T22:24:10.917Z,85787.06
2022-09-12T22:26:43.730Z,85808.22
2022-09-12T22:29:13.656Z,85807.53
2022-09-12T22:31:41.448Z,85803.72
2022-09-12T22:34:09.240Z,85778.97
2022-09-12T22:36:38.962Z,85799.78
2022-09-12T22:39:07.457Z,85799.66
2022-09-12T22:41:35.117Z,85769.16
2022-09-12T22:44:02.692Z,85765.97
2022-09-12T22:46:30.712Z,85754.38
2022-09-12T22:48:58.892Z,85770.50
2022-09-12T22:51:28.944Z,85771.78
2022-09-12T22:53:57.230Z,85762.38
2022-09-12T22:56:24.992Z,85736.47
2022-09-12T22:58:53.218Z,85763.41
2022-09-12T23:01:20.534Z,85750.28
2022-09-12T23:03:48.578Z,85723.69
2022-09-12T23:06:16.583Z,85727.25
2022-09-12T23:08:44.764Z,85672.94
2022-09-12T23:11:18.691Z,85777.78
2022-09-12T23:13:48.627Z,85780.72
2022-09-12T23:16:19.564Z,85772.16
2022-09-12T23:18:47.896Z,85751.25
2022-09-12T23:21:17.596Z,85755.34
2022-09-12T23:23:45.893Z,85765.97
2022-09-12T23:26:14.207Z,85765.41
2022-09-12T23:28:47.634Z,85720.31
2022-09-12T23:31:15.280Z,85702.81
2022-09-12T23:33:44.265Z,85762.44
2022-09-12T23:36:14.554Z,85729.13
2022-09-12T23:38:43.948Z,85771.38
2022-09-12T23:41:13.255Z,85769.91
2022-09-12T23:43:41.096Z,85760.44
2022-09-12T23:46:09.987Z,85722.56
2022-09-12T23:48:37.923Z,85688.47
2022-09-12T23:51:06.135Z,85752.44
2022-09-12T23:53:35.956Z,85695.25
2022-09-12T23:56:04.182Z,85712.84
2022-09-12T23:58:31.661Z,85725.84
